Time;durP1;ratioP1;P1;durP2;ratioP2;P2;SDS_P1;SDS_P2;PMS_P1;PMS_P2;Temp;Humidity;BMP_temperature;BMP_pressure;BME280_temperature;BME280_humidity;BME280_pressure;Samples;Min_cycle;Max_cycle;Signal;HPM_P1;HPM_P2
2023/01/18 00:01:13;;;;;;;0.30;0.30;;;0.40;99.90;;;;;;5078514;28;20418;-75
2023/01/18 00:03:41;;;;;;;0.30;0.30;;;0.30;99.90;;;;;;5094241;28;20500;-75
2023/01/18 00:06:09;;;;;;;0.40;0.40;;;0.30;99.90;;;;;;5086063;28;21001;-75
2023/01/18 00:08:38;;;;;;;0.20;0.20;;;0.30;99.90;;;;;;5095945;28;20964;-75
2023/01/18 00:11:14;;;;;;;0.55;0.55;;;0.30;99.90;;;;;;5083135;28;20426;-75
2023/01/18 00:13:41;;;;;;;0.20;0.20;;;0.20;99.90;;;;;;5083252;28;20427;-75
2023/01/18 00:16:16;;;;;;;0.20;0.20;;;0.20;99.90;;;;;;5083188;28;20520;-74
2023/01/18 00:18:54;;;;;;;0.30;0.30;;;0.20;99.90;;;;;;5092636;28;20470;-75
2023/01/18 00:21:21;;;;;;;0.22;0.22;;;0.20;99.90;;;;;;5072163;28;20429;-75
2023/01/18 00:23:51;;;;;;;0.40;0.40;;;0.10;99.90;;;;;;5095782;28;20428;-75
2023/01/18 00:26:18;;;;;;;0.75;0.32;;;0.20;99.90;;;;;;5087653;28;20436;-75
2023/01/18 00:28:45;;;;;;;0.40;0.40;;;0.30;99.90;;;;;;5100152;28;20433;-75
2023/01/18 00:31:14;;;;;;;0.60;0.40;;;0.30;99.90;;;;;;5090417;28;20417;-75
2023/01/18 00:33:48;;;;;;;1.00;0.50;;;0.30;99.90;;;;;;5101248;28;20918;-74
2023/01/18 00:36:16;;;;;;;0.20;0.20;;;0.30;99.90;;;;;;5089211;28;20426;-75
2023/01/18 00:38:50;;;;;;;0.93;0.93;;;0.20;99.90;;;;;;5078830;28;20424;-75
2023/01/18 00:41:17;;;;;;;0.40;0.30;;;0.20;99.90;;;;;;5084773;28;20508;-75
2023/01/18 00:43:43;;;;;;;0.30;0.30;;;0.20;99.90;;;;;;5090991;28;20449;-75
2023/01/18 00:46:11;;;;;;;0.43;0.43;;;0.20;99.90;;;;;;5082309;28;20461;-75
2023/01/18 00:48:40;;;;;;;0.40;0.40;;;0.10;99.90;;;;;;5089202;28;20957;-76
2023/01/18 00:51:09;;;;;;;0.30;0.30;;;0.10;99.90;;;;;;5098618;28;20457;-75
2023/01/18 00:53:38;;;;;;;0.38;0.38;;;0.10;99.90;;;;;;5088902;28;20429;-75
2023/01/18 00:56:08;;;;;;;0.30;0.30;;;0.00;99.90;;;;;;5080832;28;20436;-75
2023/01/18 00:58:36;;;;;;;0.50;0.50;;;0.00;99.90;;;;;;5089508;28;21002;-75
2023/01/18 01:01:04;;;;;;;0.55;0.52;;;-0.10;99.90;;;;;;5086352;28;20941;-75
2023/01/18 01:06:47;;;;;;;0.30;0.30;;;-0.20;99.90;;;;;;5089237;28;20420;-75
2023/01/18 01:09:19;;;;;;;0.30;0.30;;;-0.20;99.90;;;;;;5090887;28;20461;-74
2023/01/18 01:26:09;;;;;;;1.40;0.60;;;-0.80;99.90;;;;;;5070987;28;20430;-74
2023/01/18 01:28:50;;;;;;;0.60;0.60;;;-0.80;99.90;;;;;;5090436;28;20431;-75
2023/01/18 01:31:18;;;;;;;0.35;0.35;;;-0.90;99.90;;;;;;5089591;28;20447;-75
2023/01/18 01:33:47;;;;;;;0.60;0.60;;;-0.90;99.90;;;;;;5090059;28;20934;-75
2023/01/18 01:36:17;;;;;;;0.10;0.10;;;-1.00;99.90;;;;;;5087563;28;20911;-75
2023/01/18 01:38:44;;;;;;;0.40;0.40;;;-1.00;99.90;;;;;;5089023;28;20436;-74
2023/01/18 01:41:18;;;;;;;0.45;0.45;;;-1.00;99.90;;;;;;5093512;28;20942;-75
2023/01/18 01:43:46;;;;;;;0.40;0.40;;;-1.10;99.90;;;;;;5099151;28;20429;-74
2023/01/18 01:46:38;;;;;;;0.30;0.30;;;-1.10;99.90;;;;;;5078154;28;20480;-74
2023/01/18 01:49:16;;;;;;;0.20;0.20;;;-1.10;99.90;;;;;;5086727;28;20428;-75
2023/01/18 01:51:50;;;;;;;0.55;0.40;;;-1.00;99.90;;;;;;5090711;28;20514;-74
2023/01/18 01:54:22;;;;;;;2.70;0.50;;;-1.00;99.90;;;;;;5060503;28;20431;-75
2023/01/18 01:56:54;;;;;;;0.47;0.23;;;-1.10;99.90;;;;;;5078358;28;20447;-74
2023/01/18 01:59:22;;;;;;;0.75;0.63;;;-1.10;99.90;;;;;;5072041;28;20428;-75
2023/01/18 02:01:49;;;;;;;0.60;0.60;;;-1.10;99.90;;;;;;5088838;28;20424;-74
2023/01/18 02:04:16;;;;;;;1.40;0.47;;;-1.20;99.90;;;;;;5068190;28;20423;-74
2023/01/18 02:06:43;;;;;;;0.60;0.30;;;-1.20;99.90;;;;;;5089966;28;20427;-75
2023/01/18 02:09:13;;;;;;;0.50;0.50;;;-1.20;99.90;;;;;;5088920;28;20819;-75
2023/01/18 02:11:42;;;;;;;1.50;0.40;;;-1.20;99.90;;;;;;5092315;28;20426;-74
2023/01/18 02:14:14;;;;;;;0.75;0.75;;;-1.20;99.90;;;;;;5079130;28;20782;-74
2023/01/18 02:17:05;;;;;;;0.60;0.45;;;-1.20;99.90;;;;;;5097387;28;20528;-74
2023/01/18 02:20:09;;;;;;;1.00;0.50;;;-1.10;99.90;;;;;;5080366;28;20423;-74
2023/01/18 02:23:20;;;;;;;0.20;0.20;;;-1.10;99.90;;;;;;5094445;28;20503;-74
2023/01/18 02:26:20;;;;;;;0.20;0.20;;;-1.20;99.90;;;;;;5082953;28;20427;-74
2023/01/18 02:29:16;;;;;;;0.10;0.10;;;-1.30;99.90;;;;;;5093747;28;20925;-74
2023/01/18 02:31:57;;;;;;;0.30;0.30;;;-1.40;99.90;;;;;;5060698;28;20963;-74
2023/01/18 02:34:34;;;;;;;0.20;0.20;;;-1.40;99.90;;;;;;5053803;28;20538;-74
2023/01/18 02:37:15;;;;;;;0.30;0.30;;;-1.40;99.90;;;;;;5031068;28;20431;-74
2023/01/18 02:40:12;;;;;;;0.30;0.30;;;-1.40;99.90;;;;;;5033497;28;21241;-74
2023/01/18 02:48:36;;;;;;;0.60;0.60;;;-1.20;99.90;;;;;;5042792;28;20425;-74
2023/01/18 02:51:03;;;;;;;0.30;0.30;;;-1.20;99.90;;;;;;5053404;28;20995;-75
2023/01/18 02:53:36;;;;;;;0.60;0.37;;;-1.10;99.90;;;;;;5052624;28;20547;-74
2023/01/18 02:56:07;;;;;;;0.45;0.32;;;-1.10;99.90;;;;;;5057811;28;20978;-75
2023/01/18 02:58:43;;;;;;;0.70;0.57;;;-1.00;99.90;;;;;;5056035;28;21125;-74
2023/01/18 03:01:32;;;;;;;0.30;0.30;;;-1.00;99.90;;;;;;5035994;28;20427;-74
2023/01/18 03:04:10;;;;;;;0.40;0.40;;;-0.90;99.90;;;;;;5046492;28;20483;-75
2023/01/18 03:06:41;;;;;;;7.25;0.50;;;-0.90;99.90;;;;;;5049381;28;20429;-75
2023/01/18 03:09:08;;;;;;;3.00;0.70;;;-1.00;99.90;;;;;;5077842;28;20995;-74
2023/01/18 03:11:57;;;;;;;0.20;0.20;;;-1.00;99.90;;;;;;5094896;28;20445;-74
2023/01/18 03:14:36;;;;;;;0.40;0.40;;;-0.90;99.90;;;;;;5078913;28;20430;-74
2023/01/18 03:17:32;;;;;;;0.40;0.40;;;-0.90;99.90;;;;;;5084384;28;20514;-74
2023/01/18 03:25:38;;;;;;;0.40;0.40;;;-0.90;99.90;;;;;;5086765;28;20439;-74
2023/01/18 03:34:18;;;;;;;0.90;0.80;;;-1.00;99.90;;;;;;5093662;28;20536;-74
2023/01/18 03:36:47;;;;;;;0.40;0.40;;;-1.00;99.90;;;;;;5093784;28;20463;-74
2023/01/18 03:39:19;;;;;;;0.32;0.32;;;-1.00;99.90;;;;;;5085496;28;20463;-74
2023/01/18 03:41:50;;;;;;;0.47;0.47;;;-1.00;99.90;;;;;;5100671;28;20454;-74
2023/01/18 03:44:23;;;;;;;0.80;0.50;;;-1.00;99.90;;;;;;5072501;28;20435;-74
2023/01/18 03:46:50;;;;;;;0.90;0.50;;;-1.00;99.90;;;;;;5096001;28;20436;-74
2023/01/18 03:49:20;;;;;;;0.52;0.52;;;-1.10;99.90;;;;;;5084134;28;20500;-74
2023/01/18 03:52:08;;;;;;;0.77;0.68;;;-1.10;99.90;;;;;;5108352;28;20431;-74
2023/01/18 03:55:02;;;;;;;0.35;0.35;;;-1.10;99.90;;;;;;5091372;28;20418;-74
2023/01/18 03:57:41;;;;;;;0.20;0.20;;;-1.10;99.90;;;;;;5083875;28;20426;-75
2023/01/18 04:00:09;;;;;;;0.20;0.20;;;-1.10;99.90;;;;;;5094638;28;20471;-75
2023/01/18 04:02:36;;;;;;;0.60;0.60;;;-1.10;99.90;;;;;;5087741;28;20433;-74
2023/01/18 04:05:04;;;;;;;1.00;1.00;;;-1.00;99.90;;;;;;5100716;28;20422;-74
2023/01/18 04:07:35;;;;;;;0.70;0.60;;;-1.00;99.90;;;;;;5093294;28;20430;-74
2023/01/18 04:10:01;;;;;;;0.68;0.68;;;-1.00;99.90;;;;;;5077984;28;20428;-74
2023/01/18 04:12:30;;;;;;;0.30;0.30;;;-0.90;99.90;;;;;;5094701;28;20416;-74
2023/01/18 04:14:57;;;;;;;3.00;0.40;;;-0.80;99.90;;;;;;5085749;28;20423;-74
2023/01/18 04:17:23;;;;;;;0.30;0.30;;;-0.80;99.90;;;;;;5091919;28;20416;-74
2023/01/18 04:19:50;;;;;;;0.28;0.28;;;-0.80;99.90;;;;;;5089408;28;20424;-74
2023/01/18 04:22:17;;;;;;;0.25;0.25;;;-0.80;99.90;;;;;;5088376;28;20429;-74
2023/01/18 04:24:44;;;;;;;0.47;0.45;;;-0.80;99.90;;;;;;5087347;28;20419;-74
2023/01/18 04:27:11;;;;;;;7.25;0.50;;;-0.80;99.90;;;;;;5095432;28;20431;-74
2023/01/18 04:29:40;;;;;;;0.40;0.40;;;-0.90;99.90;;;;;;5076711;28;20423;-74
2023/01/18 04:32:07;;;;;;;0.50;0.50;;;-0.90;99.90;;;;;;5094566;28;20430;-74
2023/01/18 04:34:34;;;;;;;1.10;0.90;;;-1.00;99.90;;;;;;5086289;28;20427;-74
2023/01/18 04:37:01;;;;;;;0.30;0.30;;;-1.00;99.90;;;;;;5095587;28;20439;-74
2023/01/18 04:39:27;;;;;;;0.80;0.50;;;-1.00;99.90;;;;;;5079861;28;20425;-74
2023/01/18 04:41:54;;;;;;;1.00;0.50;;;-1.10;99.90;;;;;;5090939;28;20428;-74
2023/01/18 04:44:23;;;;;;;0.32;0.32;;;-1.20;99.90;;;;;;5099177;28;20426;-74
2023/01/18 04:46:50;;;;;;;0.40;0.40;;;-1.20;99.90;;;;;;5075817;28;20505;-74
2023/01/18 04:49:17;;;;;;;0.40;0.40;;;-1.20;99.90;;;;;;5083404;28;20906;-74
2023/01/18 04:51:45;;;;;;;0.55;0.32;;;-1.20;99.90;;;;;;5094787;28;20432;-74
2023/01/18 04:54:17;;;;;;;0.40;0.40;;;-1.20;99.90;;;;;;5087341;28;20507;-74
2023/01/18 04:56:44;;;;;;;1.20;0.50;;;-1.20;99.90;;;;;;5085126;28;20517;-74
2023/01/18 04:59:15;;;;;;;1.83;0.47;;;-1.20;99.90;;;;;;5083301;28;20902;-74
2023/01/18 05:01:42;;;;;;;1.23;0.63;;;-1.20;99.90;;;;;;5083212;28;20466;-74
2023/01/18 05:04:09;;;;;;;0.47;0.40;;;-1.20;99.90;;;;;;5088408;28;20520;-74
2023/01/18 05:06:36;;;;;;;0.60;0.60;;;-1.20;99.90;;;;;;5091316;28;20423;-74
2023/01/18 05:09:03;;;;;;;0.27;0.27;;;-1.10;99.90;;;;;;5093483;28;20425;-74
2023/01/18 05:11:32;;;;;;;0.45;0.45;;;-1.10;99.90;;;;;;5079979;28;20453;-74
2023/01/18 05:13:59;;;;;;;0.20;0.20;;;-1.00;99.90;;;;;;5089831;28;20429;-74
2023/01/18 05:16:26;;;;;;;0.47;0.47;;;-1.00;99.90;;;;;;5089333;28;20430;-74
2023/01/18 05:18:56;;;;;;;0.20;0.20;;;-1.10;99.90;;;;;;5086835;28;20493;-74
2023/01/18 05:21:23;;;;;;;0.30;0.30;;;-1.20;99.90;;;;;;5093062;28;20424;-74
2023/01/18 05:23:49;;;;;;;1.00;0.65;;;-1.30;99.90;;;;;;5092962;28;20424;-74
2023/01/18 05:26:19;;;;;;;0.40;0.40;;;-1.40;99.90;;;;;;5100537;28;21075;-74
2023/01/18 05:28:47;;;;;;;1.05;0.57;;;-1.50;99.90;;;;;;5079361;28;20507;-73
2023/01/18 05:31:16;;;;;;;0.90;0.35;;;-1.60;99.90;;;;;;5087904;28;20421;-74
2023/01/18 05:33:44;;;;;;;0.30;0.30;;;-1.70;99.90;;;;;;5084732;28;20822;-74
2023/01/18 05:36:10;;;;;;;0.17;0.17;;;-1.80;99.90;;;;;;5089809;28;20456;-74
2023/01/18 05:38:37;;;;;;;0.20;0.20;;;-1.80;99.90;;;;;;5088025;28;21101;-74
2023/01/18 05:41:04;;;;;;;0.45;0.45;;;-1.90;99.90;;;;;;5082092;28;20423;-74
2023/01/18 05:43:31;;;;;;;0.30;0.30;;;-1.90;99.90;;;;;;5089365;28;20437;-74
2023/01/18 05:46:00;;;;;;;0.40;0.40;;;-1.90;99.90;;;;;;5073265;28;20443;-74
2023/01/18 05:48:27;;;;;;;0.30;0.30;;;-1.80;99.90;;;;;;5087559;28;20422;-74
2023/01/18 05:50:53;;;;;;;1.00;0.45;;;-1.80;99.90;;;;;;5084723;28;20430;-74
2023/01/18 05:53:21;;;;;;;1.33;0.57;;;-1.80;99.90;;;;;;5083400;28;20437;-74
2023/01/18 05:55:56;;;;;;;0.30;0.30;;;-1.80;99.90;;;;;;5104945;28;20423;-74
2023/01/18 05:58:24;;;;;;;1.23;0.70;;;-1.70;99.90;;;;;;5103825;28;20428;-74
2023/01/18 06:00:50;;;;;;;0.40;0.40;;;-1.50;99.90;;;;;;5093799;28;20432;-74
2023/01/18 06:03:18;;;;;;;0.70;0.70;;;-1.40;99.90;;;;;;5077170;28;20431;-74
2023/01/18 06:05:46;;;;;;;0.88;0.50;;;-1.30;99.90;;;;;;5091995;28;20422;-74
2023/01/18 06:08:14;;;;;;;0.30;0.30;;;-1.10;99.90;;;;;;5094008;28;20419;-74
2023/01/18 06:10:41;;;;;;;0.23;0.23;;;-1.00;99.90;;;;;;5080641;28;20518;-74
2023/01/18 06:13:08;;;;;;;0.50;0.50;;;-0.90;99.90;;;;;;5083911;28;21324;-74
2023/01/18 06:15:35;;;;;;;0.50;0.50;;;-0.90;99.90;;;;;;5111220;28;20428;-74
2023/01/18 06:18:07;;;;;;;0.60;0.60;;;-0.90;99.90;;;;;;5097854;28;20433;-74
2023/01/18 06:20:36;;;;;;;0.60;0.60;;;-0.90;99.90;;;;;;5101702;28;20517;-74
2023/01/18 06:23:03;;;;;;;0.65;0.55;;;-0.90;99.90;;;;;;5087573;28;20847;-73
2023/01/18 06:25:30;;;;;;;0.30;0.30;;;-1.00;99.90;;;;;;5107129;28;20432;-74
2023/01/18 06:27:57;;;;;;;0.60;0.60;;;-1.00;99.90;;;;;;5080801;28;20857;-73
2023/01/18 06:30:24;;;;;;;0.55;0.55;;;-1.00;99.90;;;;;;5087152;28;20461;-73
2023/01/18 06:32:51;;;;;;;0.87;0.87;;;-0.90;99.90;;;;;;5092196;28;20536;-73
2023/01/18 06:35:19;;;;;;;0.50;0.50;;;-0.90;99.90;;;;;;5098675;28;20799;-73
2023/01/18 06:37:46;;;;;;;1.60;0.80;;;-1.00;99.90;;;;;;5094575;27;20481;-73
2023/01/18 06:40:13;;;;;;;0.40;0.40;;;-1.00;99.90;;;;;;5093111;28;20903;-73
2023/01/18 06:42:40;;;;;;;0.30;0.30;;;-1.10;99.90;;;;;;5092235;28;20418;-74
2023/01/18 06:45:08;;;;;;;0.27;0.27;;;-1.20;99.90;;;;;;5085074;28;20478;-73
2023/01/18 06:47:34;;;;;;;0.40;0.40;;;-1.20;99.90;;;;;;5088144;28;20430;-73
2023/01/18 06:50:01;;;;;;;0.60;0.60;;;-1.20;99.90;;;;;;5084883;28;20827;-73
2023/01/18 06:52:28;;;;;;;0.38;0.38;;;-1.10;99.90;;;;;;5079597;28;20417;-73
2023/01/18 06:54:55;;;;;;;0.50;0.50;;;-1.10;99.90;;;;;;5102743;28;20419;-73
2023/01/18 06:57:22;;;;;;;0.82;0.70;;;-1.20;99.90;;;;;;5089728;28;20515;-73
2023/01/18 06:59:52;;;;;;;0.70;0.43;;;-1.20;99.90;;;;;;5080564;28;20436;-73
2023/01/18 07:02:19;;;;;;;0.30;0.30;;;-1.30;99.90;;;;;;5086528;28;20433;-73
2023/01/18 07:04:47;;;;;;;0.30;0.30;;;-1.30;99.90;;;;;;5084585;28;20435;-73
2023/01/18 07:07:16;;;;;;;0.73;0.20;;;-1.30;99.90;;;;;;5086215;28;21088;-73
2023/01/18 07:09:42;;;;;;;0.22;0.22;;;-1.30;99.90;;;;;;5083690;28;20423;-73
2023/01/18 07:12:09;;;;;;;0.60;0.60;;;-1.20;99.90;;;;;;5096754;28;20420;-73
2023/01/18 07:14:36;;;;;;;0.50;0.50;;;-1.20;99.90;;;;;;5075518;28;20466;-73
2023/01/18 07:17:03;;;;;;;0.32;0.32;;;-1.10;99.90;;;;;;5061536;28;20447;-73
2023/01/18 07:19:30;;;;;;;0.30;0.30;;;-1.00;99.90;;;;;;5072753;28;20427;-73
2023/01/18 07:21:58;;;;;;;0.63;0.63;;;-1.10;99.90;;;;;;5079213;28;20425;-73
2023/01/18 07:24:25;;;;;;;0.43;0.43;;;-1.00;99.90;;;;;;5082536;28;20518;-73
2023/01/18 07:26:52;;;;;;;0.10;0.10;;;-1.00;99.90;;;;;;5091170;28;20432;-73
2023/01/18 07:29:19;;;;;;;0.20;0.20;;;-0.90;99.90;;;;;;5083014;28;20774;-73
2023/01/18 07:31:46;;;;;;;0.50;0.50;;;-0.90;99.90;;;;;;5082043;28;20429;-73
2023/01/18 07:34:14;;;;;;;1.30;0.43;;;-0.90;99.90;;;;;;5084723;28;20431;-73
2023/01/18 07:36:41;;;;;;;0.65;0.65;;;-0.80;99.90;;;;;;5091316;28;20515;-73
2023/01/18 07:39:09;;;;;;;0.45;0.43;;;-0.80;99.90;;;;;;5103501;28;20431;-72
2023/01/18 07:41:36;;;;;;;0.40;0.40;;;-0.70;99.90;;;;;;5091127;28;20852;-73
2023/01/18 07:44:04;;;;;;;0.80;0.60;;;-0.60;99.90;;;;;;5093556;28;20914;-73
2023/01/18 07:46:31;;;;;;;0.30;0.30;;;-0.60;99.90;;;;;;5073500;28;20417;-73
2023/01/18 07:49:04;;;;;;;0.35;0.30;;;-0.50;99.90;;;;;;5087264;28;20430;-73
2023/01/18 07:51:31;;;;;;;0.20;0.20;;;-0.50;99.90;;;;;;5090080;28;20431;-73
2023/01/18 07:53:58;;;;;;;0.30;0.30;;;-0.40;99.90;;;;;;5089946;28;20517;-72
2023/01/18 07:56:26;;;;;;;0.28;0.28;;;-0.40;99.90;;;;;;5086843;28;20429;-72
2023/01/18 07:58:53;;;;;;;0.45;0.45;;;-0.40;99.90;;;;;;5065247;28;20431;-73
2023/01/18 08:01:22;;;;;;;1.00;0.40;;;-0.30;99.90;;;;;;5086202;28;20417;-73
2023/01/18 08:03:49;;;;;;;0.50;0.30;;;-0.30;99.90;;;;;;5074547;28;20467;-73
2023/01/18 08:06:24;;;;;;;0.40;0.20;;;-0.20;99.90;;;;;;5071034;28;20433;-73
2023/01/18 08:08:53;;;;;;;0.30;0.30;;;-0.20;99.90;;;;;;5082516;28;20430;-73
2023/01/18 08:11:20;;;;;;;0.30;0.30;;;-0.10;99.90;;;;;;5086235;28;20483;-73
2023/01/18 08:13:48;;;;;;;0.20;0.20;;;-0.10;99.90;;;;;;5091183;28;20437;-73
2023/01/18 08:16:15;;;;;;;0.20;0.20;;;0.00;99.90;;;;;;5095649;28;20460;-73
2023/01/18 08:18:43;;;;;;;2.00;0.55;;;0.10;99.90;;;;;;5073846;28;20453;-73
2023/01/18 08:21:12;;;;;;;0.30;0.20;;;0.10;99.90;;;;;;5087556;28;20898;-73
2023/01/18 08:23:57;;;;;;;0.60;0.60;;;0.20;99.90;;;;;;5078425;28;20510;-73
2023/01/18 08:26:24;;;;;;;0.60;0.40;;;0.20;99.90;;;;;;5081664;28;20440;-73
2023/01/18 08:28:51;;;;;;;0.20;0.20;;;0.30;99.90;;;;;;5088724;28;20505;-73
2023/01/18 08:31:19;;;;;;;0.70;0.50;;;0.30;99.90;;;;;;5077531;28;20423;-73
2023/01/18 08:33:48;;;;;;;0.22;0.22;;;0.40;99.90;;;;;;5085394;28;20507;-73
2023/01/18 08:36:20;;;;;;;0.38;0.38;;;0.40;99.90;;;;;;5111232;28;20948;-73
2023/01/18 08:38:54;;;;;;;1.05;0.52;;;0.50;99.90;;;;;;5109732;28;20432;-73
2023/01/18 08:41:26;;;;;;;0.20;0.20;;;0.60;99.90;;;;;;5083402;28;20429;-73
2023/01/18 08:43:58;;;;;;;0.17;0.17;;;0.70;99.90;;;;;;5077380;28;20518;-72
2023/01/18 08:46:26;;;;;;;1.60;0.60;;;0.80;99.90;;;;;;5070445;28;20518;-73
2023/01/18 08:48:55;;;;;;;0.20;0.20;;;0.80;99.90;;;;;;5089907;28;20421;-73
2023/01/18 08:51:24;;;;;;;0.13;0.13;;;0.90;99.90;;;;;;5088579;28;20435;-73
2023/01/18 08:53:53;;;;;;;0.30;0.30;;;0.90;99.90;;;;;;5069058;28;20457;-73
2023/01/18 08:56:20;;;;;;;0.30;0.30;;;1.00;99.90;;;;;;5068873;28;20489;-73
2023/01/18 08:58:47;;;;;;;0.30;0.30;;;1.00;99.90;;;;;;5089232;28;20842;-73
2023/01/18 09:01:14;;;;;;;0.55;0.55;;;1.10;99.90;;;;;;5100735;28;22892;-73
2023/01/18 09:03:41;;;;;;;0.30;0.30;;;1.10;99.90;;;;;;5086814;28;20509;-72
2023/01/18 09:06:08;;;;;;;0.40;0.40;;;1.10;99.90;;;;;;5108434;28;20431;-73
2023/01/18 09:08:38;;;;;;;0.22;0.22;;;1.10;99.90;;;;;;5082971;28;20428;-73
2023/01/18 09:11:07;;;;;;;0.50;0.50;;;1.10;99.90;;;;;;5083444;28;20526;-73
2023/01/18 09:13:35;;;;;;;0.30;0.30;;;1.20;99.90;;;;;;5090107;28;20555;-73
2023/01/18 09:16:04;;;;;;;0.20;0.20;;;1.20;99.90;;;;;;5089859;28;20440;-73
2023/01/18 09:18:31;;;;;;;0.30;0.30;;;1.30;99.90;;;;;;5094449;28;20421;-73
2023/01/18 09:21:03;;;;;;;0.35;0.35;;;1.30;99.90;;;;;;5094631;28;20481;-73
2023/01/18 09:23:30;;;;;;;0.30;0.30;;;1.40;99.90;;;;;;5094788;28;20437;-73
2023/01/18 09:26:05;;;;;;;0.85;0.73;;;1.50;99.90;;;;;;5097009;28;21235;-73
2023/01/18 09:28:32;;;;;;;0.40;0.40;;;1.50;99.90;;;;;;5088637;28;20418;-73
2023/01/18 09:31:04;;;;;;;0.30;0.30;;;1.60;99.90;;;;;;5092426;28;22468;-74
2023/01/18 09:33:31;;;;;;;0.47;0.20;;;1.60;99.90;;;;;;5070745;28;20424;-73
2023/01/18 09:36:09;;;;;;;0.30;0.30;;;1.70;99.90;;;;;;5087565;28;20433;-73
2023/01/18 09:38:37;;;;;;;0.10;0.10;;;1.70;99.90;;;;;;5080150;28;20424;-73
2023/01/18 09:41:41;;;;;;;0.50;0.30;;;1.80;99.90;;;;;;5091232;28;20448;-73
2023/01/18 09:44:16;;;;;;;0.30;0.30;;;1.80;99.90;;;;;;5085702;28;20426;-74
2023/01/18 09:46:48;;;;;;;0.70;0.70;;;2.00;99.90;;;;;;5097867;28;20428;-73
2023/01/18 09:49:24;;;;;;;0.60;0.60;;;2.00;99.90;;;;;;5106946;28;20423;-73
2023/01/18 09:52:19;;;;;;;0.15;0.15;;;2.20;99.90;;;;;;5091544;28;20447;-74
2023/01/18 09:55:13;;;;;;;2.90;0.30;;;2.30;99.90;;;;;;5081268;28;20419;-74
2023/01/18 09:58:10;;;;;;;0.35;0.35;;;2.40;99.90;;;;;;5083206;28;20978;-73
2023/01/18 10:00:41;;;;;;;0.40;0.40;;;2.50;99.90;;;;;;5085584;28;20435;-73
2023/01/18 10:03:32;;;;;;;0.80;0.50;;;2.50;99.90;;;;;;5074267;28;20515;-74
2023/01/18 10:06:07;;;;;;;0.40;0.40;;;2.70;99.90;;;;;;5077745;28;20458;-73
2023/01/18 10:08:40;;;;;;;0.40;0.20;;;2.80;99.90;;;;;;5079532;28;20499;-74
2023/01/18 10:11:19;;;;;;;0.30;0.30;;;3.00;99.90;;;;;;5078514;28;20859;-74
2023/01/18 10:14:10;;;;;;;0.47;0.47;;;3.10;99.90;;;;;;5099000;28;20441;-73
2023/01/18 10:16:39;;;;;;;0.30;0.30;;;3.30;99.90;;;;;;5100498;28;20446;-74
2023/01/18 10:19:20;;;;;;;0.20;0.20;;;3.40;99.90;;;;;;5093209;28;20426;-74
2023/01/18 10:21:58;;;;;;;0.38;0.38;;;3.40;99.90;;;;;;5085095;28;20430;-74
2023/01/18 10:24:46;;;;;;;2.70;0.35;;;3.50;99.90;;;;;;5095039;28;20426;-74
2023/01/18 10:27:40;;;;;;;0.38;0.38;;;3.60;99.90;;;;;;5090202;28;20426;-74
2023/01/18 10:30:16;;;;;;;0.80;0.47;;;3.60;99.90;;;;;;5090742;28;20425;-75
2023/01/18 10:32:50;;;;;;;0.50;0.50;;;3.70;99.90;;;;;;5070067;28;20454;-74
2023/01/18 10:35:28;;;;;;;0.80;0.80;;;4.00;99.90;;;;;;5086819;28;20430;-75
2023/01/18 10:38:01;;;;;;;0.47;0.47;;;4.30;99.90;;;;;;5090490;28;20441;-74
2023/01/18 10:40:28;;;;;;;0.40;0.40;;;4.60;99.90;;;;;;5071798;28;20463;-75
2023/01/18 10:43:01;;;;;;;0.50;0.50;;;4.70;99.90;;;;;;5102415;28;20438;-74
2023/01/18 10:45:30;;;;;;;0.40;0.40;;;4.80;99.90;;;;;;5108767;28;20477;-75
2023/01/18 10:48:16;;;;;;;0.40;0.40;;;5.00;99.90;;;;;;5063213;28;20918;-75
2023/01/18 10:50:49;;;;;;;0.50;0.50;;;5.30;99.90;;;;;;5085857;28;20503;-75
2023/01/18 10:53:18;;;;;;;4.90;0.55;;;5.40;99.90;;;;;;5075520;28;20429;-75
2023/01/18 10:56:00;;;;;;;1.25;0.85;;;5.40;99.90;;;;;;5083346;28;20433;-75
2023/01/18 10:58:45;;;;;;;0.73;0.50;;;5.70;99.90;;;;;;5082942;28;20431;-75
2023/01/18 11:01:21;;;;;;;2.63;1.10;;;5.90;99.90;;;;;;5075908;28;20518;-75
2023/01/18 11:03:51;;;;;;;0.63;0.63;;;6.20;99.90;;;;;;5090847;28;20457;-75
2023/01/18 11:06:19;;;;;;;0.40;0.40;;;6.40;99.90;;;;;;5080144;28;20439;-75
2023/01/18 11:08:50;;;;;;;0.80;0.80;;;6.50;99.90;;;;;;5090675;28;20422;-75
2023/01/18 11:12:32;;;;;;;0.60;0.60;;;6.50;99.90;;;;;;5083956;28;20431;-75
2023/01/18 11:14:29;;;;;;;0.43;0.43;;;6.10;99.90;;;;;;5086298;28;20435;-75
2023/01/18 11:17:02;;;;;;;0.45;0.45;;;5.80;99.90;;;;;;5095382;28;20447;-75
2023/01/18 11:19:29;;;;;;;0.52;0.52;;;5.60;99.90;;;;;;5087450;28;20844;-74
2023/01/18 11:21:56;;;;;;;0.50;0.50;;;5.30;99.90;;;;;;5081750;28;20623;-75
2023/01/18 11:24:28;;;;;;;0.40;0.40;;;5.00;99.90;;;;;;5074599;28;20427;-75
2023/01/18 11:27:12;;;;;;;0.90;0.90;;;4.70;99.90;;;;;;5089804;28;20424;-75
2023/01/18 11:29:44;;;;;;;0.20;0.20;;;4.60;99.90;;;;;;5089790;28;20452;-75
2023/01/18 11:32:31;;;;;;;0.50;0.50;;;4.50;99.90;;;;;;5082063;28;20429;-75
2023/01/18 11:34:59;;;;;;;0.20;0.20;;;4.70;99.90;;;;;;5089513;28;20425;-75
2023/01/18 11:37:35;;;;;;;3.90;0.90;;;4.80;99.90;;;;;;5089327;28;20430;-75
2023/01/18 11:40:33;;;;;;;1.80;0.80;;;4.90;99.90;;;;;;5092583;28;20521;-74
2023/01/18 11:43:08;;;;;;;0.40;0.40;;;5.20;99.90;;;;;;5071223;28;20466;-75
2023/01/18 11:45:53;;;;;;;2.50;0.50;;;5.40;99.90;;;;;;5078198;28;20802;-75
2023/01/18 11:48:27;;;;;;;0.65;0.65;;;5.40;99.90;;;;;;5092040;28;20961;-75
2023/01/18 11:51:14;;;;;;;1.30;0.70;;;5.50;99.90;;;;;;5068943;28;20423;-76
2023/01/18 11:54:29;;;;;;;0.80;0.80;;;5.40;99.90;;;;;;5078190;28;20429;-76
2023/01/18 11:57:03;;;;;;;0.70;0.70;;;5.20;99.90;;;;;;5045264;28;20455;-76
2023/01/18 11:59:40;;;;;;;0.47;0.47;;;5.00;99.90;;;;;;5044339;28;20452;-76
2023/01/18 12:02:29;;;;;;;0.90;0.52;;;4.90;99.90;;;;;;5054514;28;20431;-76
2023/01/18 12:05:15;;;;;;;0.60;0.60;;;5.00;99.90;;;;;;5041008;28;20800;-75
2023/01/18 12:08:00;;;;;;;0.52;0.52;;;4.90;99.90;;;;;;5047040;28;20516;-75
2023/01/18 12:10:40;;;;;;;2.83;0.90;;;4.70;99.90;;;;;;5057739;28;20419;-76
2023/01/18 12:13:35;;;;;;;0.60;0.60;;;4.60;99.90;;;;;;5027690;28;20423;-75
2023/01/18 12:16:18;;;;;;;0.93;0.93;;;4.80;99.90;;;;;;5027946;28;20434;-75
2023/01/18 12:19:25;;;;;;;0.90;0.90;;;4.90;99.90;;;;;;5025169;28;20492;-75
2023/01/18 12:22:03;;;;;;;0.73;0.73;;;5.20;99.90;;;;;;4970420;28;21095;-75
2023/01/18 12:24:58;;;;;;;5.70;0.95;;;5.30;99.90;;;;;;4958622;28;20591;-75
2023/01/18 12:27:27;;;;;;;1.10;0.70;;;5.30;99.90;;;;;;4967478;28;20519;-75
2023/01/18 12:30:08;;;;;;;5.40;0.63;;;5.10;99.90;;;;;;4965722;28;20543;-75
2023/01/18 12:33:05;;;;;;;1.10;0.90;;;4.90;99.90;;;;;;5018244;28;20470;-75
2023/01/18 12:35:46;;;;;;;1.90;0.98;;;4.80;99.90;;;;;;5034425;28;20431;-76
2023/01/18 12:38:27;;;;;;;0.63;0.63;;;4.60;99.90;;;;;;5030584;28;20491;-76
2023/01/18 12:41:15;;;;;;;0.98;0.85;;;4.40;99.90;;;;;;5027067;28;20996;-76
2023/01/18 12:44:20;;;;;;;3.35;1.13;;;4.40;99.90;;;;;;5015315;28;20448;-76
2023/01/18 12:47:21;;;;;;;0.50;0.50;;;4.50;99.90;;;;;;5013413;28;20454;-76
2023/01/18 12:49:54;;;;;;;0.55;0.50;;;4.70;99.90;;;;;;5016860;28;20935;-77
2023/01/18 12:52:23;;;;;;;1.75;0.68;;;4.90;99.90;;;;;;5015277;28;20429;-75
2023/01/18 12:54:54;;;;;;;0.90;0.57;;;5.00;99.90;;;;;;5013333;28;20446;-75
2023/01/18 12:57:23;;;;;;;1.10;0.90;;;5.00;99.90;;;;;;5023079;28;20439;-76
2023/01/18 13:00:05;;;;;;;1.80;0.70;;;4.70;99.90;;;;;;5073772;28;20915;-76
2023/01/18 13:02:36;;;;;;;0.90;0.60;;;4.60;99.90;;;;;;5067999;28;20451;-76
2023/01/18 13:05:06;;;;;;;2.15;1.13;;;4.60;99.90;;;;;;5064626;28;20508;-73
2023/01/18 13:07:43;;;;;;;1.17;0.98;;;4.70;99.90;;;;;;5084678;28;20428;-73
2023/01/18 13:10:23;;;;;;;1.10;0.70;;;4.60;99.90;;;;;;5074506;28;20921;-76
2023/01/18 13:12:52;;;;;;;0.75;0.75;;;4.50;99.90;;;;;;5082266;28;20604;-76
2023/01/18 13:15:37;;;;;;;0.73;0.73;;;4.40;99.90;;;;;;5072835;28;21011;-75
2023/01/18 13:18:14;;;;;;;0.50;0.50;;;4.30;99.90;;;;;;5103257;28;20455;-75
2023/01/18 13:21:09;;;;;;;0.50;0.50;;;4.30;99.90;;;;;;5070810;28;20439;-75
2023/01/18 13:24:05;;;;;;;1.00;0.87;;;4.30;99.90;;;;;;5070023;28;20429;-76
2023/01/18 13:26:34;;;;;;;1.30;0.75;;;4.40;99.90;;;;;;5075193;28;20430;-73
2023/01/18 13:29:07;;;;;;;0.40;0.40;;;4.60;99.90;;;;;;5087093;28;20423;-73
2023/01/18 13:31:33;;;;;;;0.65;0.65;;;4.70;99.90;;;;;;5090883;28;21177;-73
2023/01/18 13:34:02;;;;;;;2.17;0.80;;;4.70;99.90;;;;;;5082338;28;20430;-72
2023/01/18 13:36:43;;;;;;;0.93;0.93;;;4.60;99.90;;;;;;5080007;28;20452;-75
2023/01/18 13:39:15;;;;;;;1.20;0.50;;;4.40;99.90;;;;;;5077273;28;20549;-75
2023/01/18 13:42:01;;;;;;;1.58;1.05;;;4.20;99.90;;;;;;5087437;28;20438;-76
2023/01/18 13:44:44;;;;;;;2.10;0.70;;;4.10;99.90;;;;;;5083796;28;20519;-75
2023/01/18 13:47:44;;;;;;;1.40;0.80;;;3.90;99.90;;;;;;5093379;28;20908;-75
2023/01/18 13:50:37;;;;;;;0.65;0.65;;;3.70;99.90;;;;;;5089606;28;20421;-75
2023/01/18 13:53:12;;;;;;;0.52;0.52;;;3.60;99.90;;;;;;5082888;28;20433;-76
2023/01/18 13:55:51;;;;;;;0.70;0.70;;;3.60;99.90;;;;;;5083586;28;20425;-75
2023/01/18 13:58:25;;;;;;;1.25;1.17;;;3.50;99.90;;;;;;5082995;28;20924;-75
2023/01/18 14:00:58;;;;;;;1.67;1.05;;;3.50;99.90;;;;;;5088100;28;20440;-75